createdAt,value
2023-02-25T00:03:56.875Z,100.00
2023-02-25T00:09:01.981Z,100.00
2023-02-25T00:14:05.917Z,100.00
2023-02-25T00:19:10.555Z,100.00
2023-02-25T00:24:17.168Z,100.00
2023-02-25T00:29:22.162Z,100.00
2023-02-25T00:34:26.179Z,100.00
2023-02-25T00:39:42.941Z,100.00
2023-02-25T00:44:48.168Z,100.00
2023-02-25T00:49:52.402Z,100.00
2023-02-25T00:54:57.563Z,100.00
2023-02-25T01:00:01.383Z,100.00
2023-02-25T01:05:05.447Z,100.00
2023-02-25T01:10:12.269Z,100.00
2023-02-25T01:15:16.267Z,100.00
2023-02-25T01:20:22.460Z,100.00
2023-02-25T01:25:27.701Z,100.00
2023-02-25T01:30:31.400Z,100.00
2023-02-25T01:35:36.907Z,100.00
2023-02-25T01:40:42.069Z,100.00
2023-02-25T01:45:46.151Z,100.00
2023-02-25T01:50:52.963Z,100.00
2023-02-25T01:56:00.184Z,100.00
2023-02-25T02:01:04.166Z,100.00
2023-02-25T02:06:11.913Z,100.00
2023-02-25T02:11:18.331Z,100.00
2023-02-25T02:16:54.862Z,100.00
2023-02-25T02:22:08.384Z,100.00
2023-02-25T02:27:15.622Z,100.00
2023-02-25T02:32:32.356Z,100.00
2023-02-25T02:37:43.739Z,100.00
2023-02-25T02:42:58.481Z,100.00
2023-02-25T02:48:07.426Z,100.00
2023-02-25T02:53:17.546Z,100.00
2023-02-25T02:58:27.166Z,100.00
2023-02-25T03:03:37.933Z,100.00
2023-02-25T03:08:45.730Z,100.00
2023-02-25T03:13:51.514Z,100.00
2023-02-25T03:19:01.004Z,100.00
2023-02-25T03:24:09.554Z,100.00
2023-02-25T03:29:17.747Z,100.00
2023-02-25T03:34:25.890Z,100.00
2023-02-25T03:39:33.087Z,100.00
2023-02-25T03:44:42.400Z,100.00
2023-02-25T03:49:51.698Z,100.00
2023-02-25T03:54:57.570Z,100.00
2023-02-25T04:00:02.223Z,100.00
2023-02-25T04:05:08.812Z,100.00
2023-02-25T04:10:14.552Z,100.00
2023-02-25T04:15:19.022Z,100.00
2023-02-25T04:20:24.775Z,100.00
2023-02-25T04:25:29.007Z,100.00
2023-02-25T04:30:34.389Z,100.00
2023-02-25T04:35:40.454Z,100.00
2023-02-25T04:40:44.155Z,100.00
2023-02-25T04:45:48.172Z,100.00
2023-02-25T04:50:53.171Z,100.00
2023-02-25T04:55:56.854Z,100.00
2023-02-25T05:01:01.552Z,100.00
2023-02-25T05:06:08.911Z,100.00
2023-02-25T05:11:12.713Z,100.00
2023-02-25T05:16:18.585Z,100.00
2023-02-25T05:21:25.971Z,100.00
2023-02-25T05:26:29.754Z,100.00
2023-02-25T05:31:33.602Z,100.00
2023-02-25T05:36:38.713Z,100.00
2023-02-25T05:41:42.535Z,100.00
2023-02-25T05:46:46.292Z,100.00
2023-02-25T05:51:51.868Z,100.00
2023-02-25T05:56:55.542Z,100.00
2023-02-25T06:01:59.295Z,100.00
2023-02-25T06:07:04.689Z,100.00
2023-02-25T06:12:09.206Z,100.00
2023-02-25T06:17:12.891Z,100.00
2023-02-25T06:22:17.883Z,100.00
2023-02-25T06:27:22.209Z,100.00
2023-02-25T06:32:26.025Z,100.00
2023-02-25T06:37:31.128Z,100.00
2023-02-25T06:42:34.908Z,100.00
2023-02-25T06:47:38.620Z,100.00
2023-02-25T06:52:43.698Z,100.00
2023-02-25T06:57:47.415Z,100.00
2023-02-25T07:02:51.588Z,100.00
2023-02-25T07:07:56.713Z,100.00
2023-02-25T07:13:00.787Z,100.00
2023-02-25T07:18:05.120Z,100.00
2023-02-25T07:23:10.159Z,100.00
2023-02-25T07:28:13.905Z,100.00
2023-02-25T07:33:17.612Z,100.00
2023-02-25T07:38:22.761Z,100.00
2023-02-25T07:43:26.460Z,100.00
2023-02-25T07:48:30.434Z,100.00
2023-02-25T07:53:35.825Z,100.00
2023-02-25T07:58:40.331Z,100.00
2023-02-25T08:03:44.019Z,100.00
2023-02-25T08:08:50.831Z,100.00
2023-02-25T08:13:55.131Z,100.00
2023-02-25T08:18:59.336Z,100.00
2023-02-25T08:24:04.558Z,100.00
2023-02-25T08:29:08.611Z,100.00
2023-02-25T08:34:12.318Z,100.00
2023-02-25T08:39:18.386Z,100.00
2023-02-25T08:44:22.542Z,100.00
2023-02-25T08:49:26.385Z,100.00
2023-02-25T08:54:31.546Z,100.00
2023-02-25T08:59:36.805Z,100.00
2023-02-25T09:04:40.600Z,100.00
2023-02-25T09:09:45.685Z,100.00
2023-02-25T09:14:50.219Z,100.00
2023-02-25T09:19:53.972Z,100.00
2023-02-25T09:24:59.177Z,100.00
2023-02-25T09:30:02.990Z,100.00
2023-02-25T09:35:07.783Z,100.00
2023-02-25T09:40:18.037Z,100.00
2023-02-25T09:45:25.735Z,100.00
2023-02-25T09:50:34.028Z,100.00
2023-02-25T09:55:41.062Z,100.00
2023-02-25T10:00:49.155Z,100.00
2023-02-25T10:06:01.505Z,100.00
2023-02-25T10:11:12.683Z,100.00
2023-02-25T10:16:36.092Z,100.00
2023-02-25T10:21:55.097Z,100.00
2023-02-25T10:27:11.299Z,100.00
2023-02-25T10:32:20.824Z,100.00
2023-02-25T10:37:29.910Z,100.00
2023-02-25T10:42:35.112Z,100.00
2023-02-25T10:47:41.741Z,100.00
2023-02-25T10:52:56.997Z,100.00
2023-02-25T10:58:02.092Z,100.00
2023-02-25T11:03:06.142Z,100.00
2023-02-25T11:08:27.822Z,100.00
2023-02-25T11:13:36.891Z,100.00
2023-02-25T11:18:42.032Z,100.00
2023-02-25T11:23:48.853Z,100.00
2023-02-25T11:28:54.529Z,100.00
2023-02-25T11:34:01.173Z,100.00
2023-02-25T11:39:14.606Z,100.00
2023-02-25T11:44:24.114Z,100.00
2023-02-25T11:49:38.344Z,100.00
2023-02-25T11:54:53.027Z,100.00
2023-02-25T12:00:11.909Z,100.00
2023-02-25T12:05:28.051Z,100.00
2023-02-25T12:11:00.823Z,100.00
2023-02-25T12:16:41.093Z,100.00
2023-02-25T12:22:14.856Z,100.00
2023-02-25T12:27:58.925Z,100.00
2023-02-25T12:33:11.161Z,100.00
2023-02-25T12:38:50.184Z,100.00
2023-02-25T12:44:01.000Z,100.00
2023-02-25T12:49:31.662Z,100.00
2023-02-25T12:55:01.149Z,100.00
2023-02-25T13:00:45.937Z,100.00
2023-02-25T13:06:04.302Z,100.00
2023-02-25T13:11:19.027Z,87.98
2023-02-25T13:16:48.667Z,68.89
2023-02-25T13:22:04.526Z,68.02
2023-02-25T13:27:28.305Z,73.53
2023-02-25T13:32:39.715Z,76.25
2023-02-25T13:37:52.440Z,93.26
2023-02-25T13:43:09.114Z,99.57
2023-02-25T13:48:39.009Z,100.00
2023-02-25T13:53:59.009Z,92.65
2023-02-25T13:59:23.491Z,84.68
2023-02-25T14:05:00.397Z,71.45
2023-02-25T14:10:41.176Z,69.43
2023-02-25T14:15:59.927Z,66.90
2023-02-25T14:21:22.712Z,65.08
2023-02-25T14:26:35.472Z,56.78
2023-02-25T14:31:58.764Z,54.33
2023-02-25T14:37:27.510Z,47.95
2023-02-25T14:42:47.700Z,44.59
2023-02-25T14:48:01.148Z,45.24
2023-02-25T14:53:45.473Z,43.75
2023-02-25T14:59:11.405Z,41.22
2023-02-25T15:04:45.856Z,41.87
2023-02-25T15:10:27.956Z,38.88
2023-02-25T15:15:59.088Z,37.31
2023-02-25T15:21:38.192Z,38.59
2023-02-25T15:26:45.925Z,38.07
2023-02-25T15:32:16.521Z,41.10
2023-02-25T15:37:28.132Z,38.04
2023-02-25T15:42:43.158Z,40.37
2023-02-25T15:47:48.715Z,38.54
2023-02-25T15:52:57.764Z,42.91
2023-02-25T15:58:01.668Z,41.42
2023-02-25T16:03:27.236Z,44.31
2023-02-25T16:08:39.672Z,43.67
2023-02-25T16:13:44.063Z,45.96
2023-02-25T16:18:50.594Z,47.99
2023-02-25T16:23:56.270Z,49.08
2023-02-25T16:29:10.917Z,48.50
2023-02-25T16:34:22.789Z,49.74
2023-02-25T16:39:29.398Z,51.10
2023-02-25T16:44:38.948Z,51.59
2023-02-25T16:49:46.867Z,52.35
2023-02-25T16:54:57.613Z,53.85
2023-02-25T17:00:21.406Z,53.51
2023-02-25T17:05:29.100Z,52.81
2023-02-25T17:10:43.439Z,54.18
2023-02-25T17:15:47.207Z,55.27
2023-02-25T17:20:51.397Z,56.75
2023-02-25T17:25:59.121Z,58.33
2023-02-25T17:31:09.232Z,59.89
2023-02-25T17:36:15.069Z,62.12
2023-02-25T17:41:22.328Z,63.82
2023-02-25T17:46:36.082Z,64.73
2023-02-25T17:51:39.851Z,64.38
2023-02-25T17:56:45.745Z,66.99
2023-02-25T18:01:54.442Z,71.19
2023-02-25T18:06:58.306Z,74.25
2023-02-25T18:12:05.937Z,74.02
2023-02-25T18:17:26.362Z,74.37
2023-02-25T18:22:35.747Z,75.27
2023-02-25T18:27:40.848Z,75.94
2023-02-25T18:32:44.579Z,76.24
2023-02-25T18:37:50.677Z,80.07
2023-02-25T18:42:55.711Z,81.42
2023-02-25T18:48:00.282Z,84.41
2023-02-25T18:53:04.933Z,90.02
2023-02-25T18:58:15.108Z,88.08
2023-02-25T19:03:25.260Z,91.65
2023-02-25T19:08:29.013Z,91.10
2023-02-25T19:13:36.125Z,91.21
2023-02-25T19:18:41.437Z,92.39
2023-02-25T19:23:45.134Z,97.15
2023-02-25T19:28:50.278Z,99.85
2023-02-25T19:33:53.977Z,98.81
2023-02-25T19:38:57.664Z,100.00
2023-02-25T19:44:03.490Z,100.00
2023-02-25T19:49:07.214Z,100.00
2023-02-25T19:54:11.135Z,100.00
2023-02-25T19:59:16.679Z,100.00
2023-02-25T20:04:20.428Z,100.00
2023-02-25T20:09:24.359Z,100.00
2023-02-25T20:14:32.741Z,100.00
2023-02-25T20:19:36.508Z,100.00
2023-02-25T20:24:40.332Z,100.00
2023-02-25T20:29:45.532Z,100.00
2023-02-25T20:34:49.728Z,100.00
2023-02-25T20:39:55.162Z,100.00
2023-02-25T20:45:01.761Z,100.00
2023-02-25T20:50:08.226Z,100.00
2023-02-25T20:55:12.209Z,100.00
2023-02-25T21:00:20.500Z,100.00
2023-02-25T21:05:24.253Z,100.00
2023-02-25T21:10:28.021Z,100.00
2023-02-25T21:15:33.058Z,100.00
2023-02-25T21:20:36.837Z,100.00
2023-02-25T21:25:40.512Z,100.00
2023-02-25T21:30:45.664Z,100.00
2023-02-25T21:35:53.293Z,100.00
2023-02-25T21:40:57.289Z,100.00
2023-02-25T21:46:05.177Z,100.00
2023-02-25T21:51:15.042Z,100.00
2023-02-25T21:56:19.081Z,100.00
2023-02-25T22:01:26.195Z,100.00
2023-02-25T22:06:30.131Z,100.00
2023-02-25T22:11:36.222Z,100.00
2023-02-25T22:16:41.533Z,100.00
2023-02-25T22:21:46.345Z,100.00
2023-02-25T22:26:52.023Z,100.00
2023-02-25T22:31:57.165Z,100.00
2023-02-25T22:37:00.932Z,100.00
2023-02-25T22:42:04.870Z,100.00
2023-02-25T22:47:09.930Z,100.00
2023-02-25T22:52:13.668Z,100.00
2023-02-25T22:57:17.421Z,100.00
2023-02-25T23:02:22.481Z,100.00
2023-02-25T23:07:26.712Z,100.00
2023-02-25T23:12:31.401Z,100.00
2023-02-25T23:17:38.363Z,100.00
2023-02-25T23:22:42.046Z,100.00
2023-02-25T23:27:45.722Z,100.00
2023-02-25T23:32:50.879Z,100.00
2023-02-25T23:37:54.766Z,100.00
2023-02-25T23:42:58.433Z,100.00
2023-02-25T23:48:03.511Z,100.00
2023-02-25T23:53:07.267Z,100.00
2023-02-25T23:58:11.148Z,100.00
